F/V San Prudentzio B — EAUY — position and weather

sailwx.info

Track history (hours):
 
Tides and Currents Weather Stations Pressure Air Temp Water Temp Dewpoint Dewpoint Depression Visibility Wind Speed Wind Dir Waves Ship Positions

F/V San Prudentzio B

Last reported at 2018-Jun-19 13:44 UTC. Time now 2018-Jun-20 21:11 UTC.
Position N 43°18' W 002°12'.

Length 36 m.

Type: Fishing. MMSI: 224075190.

Date/timePositionNaut miles runAvg speedWind from/ knotsBaromVisibWave heightAir tempDewpointWater temp
2018-Jun-19 13:44N 43°18' W 002°12'1 4.8
2018-Jun-19 13:31N 43°19' W 002°11'0 0.2
2018-Jun-19 13:01N 43°19' W 002°11'  
2018-Jun-16 09:35N 43°18' W 002°12'0 4.1
2018-Jun-16 09:30N 43°18' W 002°12'5 9.8
2018-Jun-16 09:00N 43°20' W 002°05'5 9.9
2018-Jun-16 08:30N 43°21' W 001°59'3 6.5
2018-Jun-16 08:00N 43°19' W 001°55'0 0.0
2018-Jun-14 14:23N 43°19' W 001°55'0 0.0
2018-Jun-14 14:01N 43°19' W 001°55'3 6.6
2018-Jun-14 13:30N 43°21' W 001°59'510.6
2018-Jun-14 13:01N 43°19' W 002°06'5 9.1
2018-Jun-14 12:30N 43°18' W 002°12'0 0.0
2018-Jun-14 11:57N 43°18' W 002°12'0 0.0
2018-Jun-14 09:36N 43°18' W 002°12'0 0.0
2018-Jun-14 09:14N 43°18' W 002°12'0 0.0
2018-Jun-14 08:55N 43°18' W 002°12'0 0.0
2018-Jun-14 08:16N 43°18' W 002°12'0 0.0
2018-Jun-13 10:48N 43°18' W 002°12'0 0.0
2018-Jun-13 10:19N 43°18' W 002°12'  
Track history (hours):
 
Tides and Currents Weather Stations Pressure Air Temp Water Temp Dewpoint Dewpoint Depression Visibility Wind Speed Wind Dir Waves Ship Positions

F/V San Prudentzio B

Last reported at 2018-Jun-19 13:44 UTC. Time now 2018-Jun-20 21:11 UTC.
Position N 43°18' W 002°12'.

Length 36 m.

Type: Fishing. MMSI: 224075190.

Date/timePositionNaut miles runAvg speedWind from/ knotsBaromVisibWave heightAir tempDewpointWater temp
2018-Jun-19 13:44N 43°18' W 002°12'1 4.8
2018-Jun-19 13:31N 43°19' W 002°11'0 0.2
2018-Jun-19 13:01N 43°19' W 002°11'  
2018-Jun-16 09:35N 43°18' W 002°12'0 4.1
2018-Jun-16 09:30N 43°18' W 002°12'5 9.8
2018-Jun-16 09:00N 43°20' W 002°05'5 9.9
2018-Jun-16 08:30N 43°21' W 001°59'3 6.5
2018-Jun-16 08:00N 43°19' W 001°55'0 0.0
2018-Jun-14 14:23N 43°19' W 001°55'0 0.0
2018-Jun-14 14:01N 43°19' W 001°55'3 6.6
2018-Jun-14 13:30N 43°21' W 001°59'510.6
2018-Jun-14 13:01N 43°19' W 002°06'5 9.1
2018-Jun-14 12:30N 43°18' W 002°12'0 0.0
2018-Jun-14 11:57N 43°18' W 002°12'0 0.0
2018-Jun-14 09:36N 43°18' W 002°12'0 0.0
2018-Jun-14 09:14N 43°18' W 002°12'0 0.0
2018-Jun-14 08:55N 43°18' W 002°12'0 0.0
2018-Jun-14 08:16N 43°18' W 002°12'0 0.0
2018-Jun-13 10:48N 43°18' W 002°12'0 0.0
2018-Jun-13 10:19N 43°18' W 002°12'  

Dump ship's entire track history